Time;durP1;ratioP1;P1;durP2;ratioP2;P2;SDS_P1;SDS_P2;PMS_P1;PMS_P2;Temp;Humidity;BMP_temperature;BMP_pressure;BME280_temperature;BME280_humidity;BME280_pressure;Samples;Min_cycle;Max_cycle;Signal;HPM_P1;HPM_P2
2021/12/30 00:01:58;;;;;;;23.63;10.38;;;-4.00;99.90;;;;;;5018467;28;20120;-84
2021/12/30 00:04:25;;;;;;;19.98;10.07;;;-4.00;99.90;;;;;;5036140;28;20057;-83
2021/12/30 00:06:52;;;;;;;21.52;10.88;;;-4.00;99.90;;;;;;5018226;28;20494;-84
2021/12/30 00:09:21;;;;;;;24.63;11.88;;;-4.00;99.90;;;;;;5018049;28;20029;-84
2021/12/30 00:11:47;;;;;;;19.88;9.98;;;-4.00;99.90;;;;;;5036021;28;20039;-83
2021/12/30 00:14:13;;;;;;;20.75;10.13;;;-4.00;99.90;;;;;;5018217;28;20079;-83
2021/12/30 00:16:39;;;;;;;22.50;10.05;;;-4.00;99.90;;;;;;5018142;28;20030;-83
2021/12/30 00:19:06;;;;;;;19.77;9.43;;;-4.00;99.90;;;;;;5036130;28;20197;-84
2021/12/30 00:21:31;;;;;;;19.52;10.35;;;-4.00;99.90;;;;;;5036245;28;20086;-83
2021/12/30 00:23:57;;;;;;;21.48;10.45;;;-4.00;99.90;;;;;;5036125;28;20463;-83
2021/12/30 00:26:23;;;;;;;17.92;9.38;;;-3.90;99.90;;;;;;5035941;28;20021;-83
2021/12/30 00:28:49;;;;;;;19.73;10.20;;;-4.00;99.90;;;;;;5035667;28;20030;-83
2021/12/30 00:31:15;;;;;;;20.15;9.10;;;-4.00;99.90;;;;;;5035758;28;20033;-83
2021/12/30 00:33:42;;;;;;;19.63;10.18;;;-4.00;99.90;;;;;;5035649;28;20029;-84
2021/12/30 00:36:10;;;;;;;25.40;11.93;;;-4.00;99.90;;;;;;5017751;28;20068;-84
2021/12/30 00:38:42;;;;;;;22.48;10.75;;;-3.90;99.90;;;;;;5017995;28;20072;-84
2021/12/30 00:41:09;;;;;;;21.20;11.13;;;-4.00;99.90;;;;;;5018209;28;20533;-84
2021/12/30 00:43:35;;;;;;;23.23;11.55;;;-3.90;99.90;;;;;;5017656;28;20025;-83
2021/12/30 00:46:01;;;;;;;28.25;12.40;;;-3.90;99.90;;;;;;5017634;28;20099;-83
2021/12/30 00:48:26;;;;;;;29.48;13.40;;;-4.00;99.90;;;;;;5017492;28;20478;-83
2021/12/30 00:50:52;;;;;;;38.33;17.75;;;-4.00;99.90;;;;;;5017894;28;20041;-83
2021/12/30 00:53:19;;;;;;;42.53;20.55;;;-3.90;99.90;;;;;;5017729;28;20356;-83
2021/12/30 00:55:44;;;;;;;37.38;17.35;;;-3.90;99.90;;;;;;5016999;28;20032;-84
2021/12/30 00:58:11;;;;;;;32.45;15.38;;;-3.90;99.90;;;;;;5034908;28;20029;-83
2021/12/30 01:00:40;;;;;;;26.90;12.68;;;-3.90;99.90;;;;;;5034948;28;20026;-82
2021/12/30 01:03:06;;;;;;;24.55;11.95;;;-3.90;99.90;;;;;;5017419;28;20032;-82
2021/12/30 01:05:33;;;;;;;25.95;11.82;;;-4.00;99.90;;;;;;5017842;28;20033;-82
2021/12/30 01:07:59;;;;;;;23.13;11.25;;;-4.00;99.90;;;;;;5018298;28;20387;-83
2021/12/30 01:10:26;;;;;;;21.98;10.85;;;-4.00;99.90;;;;;;5016959;28;20049;-83
2021/12/30 01:12:55;;;;;;;20.67;10.40;;;-4.00;99.90;;;;;;5017652;28;20455;-83
2021/12/30 01:15:34;;;;;;;22.63;11.30;;;-4.00;99.90;;;;;;5034917;28;20021;-83
2021/12/30 01:20:48;;;;;;;22.50;10.80;;;-4.00;99.90;;;;;;5034908;28;20119;-83
2021/12/30 01:23:14;;;;;;;23.05;11.02;;;-4.00;99.90;;;;;;5017350;28;20449;-84
2021/12/30 01:25:40;;;;;;;22.70;11.25;;;-4.00;99.90;;;;;;5017075;28;20068;-83
2021/12/30 01:28:05;;;;;;;22.35;11.23;;;-4.00;99.90;;;;;;5017045;28;20060;-83
2021/12/30 01:30:31;;;;;;;20.95;10.35;;;-4.00;99.90;;;;;;5016784;28;20033;-83
2021/12/30 01:32:57;;;;;;;22.13;10.45;;;-4.00;99.90;;;;;;5016763;28;20113;-84
2021/12/30 01:35:25;;;;;;;20.75;9.32;;;-4.00;99.90;;;;;;5034062;28;20075;-84
2021/12/30 01:37:54;;;;;;;21.83;10.43;;;-3.90;99.90;;;;;;5016897;28;20025;-85
2021/12/30 01:40:21;;;;;;;19.30;10.18;;;-4.00;99.90;;;;;;5016751;28;20426;-82
2021/12/30 01:42:48;;;;;;;21.83;11.23;;;-4.00;99.90;;;;;;5034420;28;20024;-83
2021/12/30 01:45:14;;;;;;;22.48;10.73;;;-4.00;99.90;;;;;;5034339;28;20475;-84
2021/12/30 01:47:47;;;;;;;24.52;11.55;;;-3.90;99.90;;;;;;5016790;28;20061;-85
2021/12/30 01:50:13;;;;;;;23.45;11.60;;;-3.90;99.90;;;;;;5016313;28;20528;-84
2021/12/30 01:52:39;;;;;;;23.45;11.73;;;-3.90;99.90;;;;;;5016281;28;20021;-84
2021/12/30 01:55:05;;;;;;;23.67;11.18;;;-3.90;99.90;;;;;;5016183;28;20155;-84
2021/12/30 01:57:31;;;;;;;25.08;11.73;;;-3.90;99.90;;;;;;5034127;28;20049;-84
2021/12/30 01:59:57;;;;;;;23.80;11.60;;;-3.90;99.90;;;;;;5016262;28;20422;-85
2021/12/30 02:02:22;;;;;;;25.23;12.25;;;-3.90;99.90;;;;;;5015950;28;20075;-84
2021/12/30 02:04:48;;;;;;;31.33;14.13;;;-3.90;99.90;;;;;;5016332;28;20032;-83
2021/12/30 02:07:14;;;;;;;27.15;12.60;;;-3.90;99.90;;;;;;5033376;28;20029;-83
2021/12/30 02:09:40;;;;;;;24.77;12.70;;;-3.90;99.90;;;;;;5016680;28;20387;-82
2021/12/30 02:12:06;;;;;;;24.05;12.23;;;-3.80;99.90;;;;;;5016255;28;20025;-84
2021/12/30 02:14:34;;;;;;;24.10;11.85;;;-3.80;99.90;;;;;;5016305;28;20026;-83
2021/12/30 02:17:00;;;;;;;21.20;10.10;;;-3.90;99.90;;;;;;5019782;28;20027;-82
2021/12/30 02:19:26;;;;;;;22.48;11.07;;;-3.90;99.90;;;;;;5019244;28;20025;-83
2021/12/30 02:21:52;;;;;;;24.30;11.27;;;-3.90;99.90;;;;;;5017972;28;20064;-87
2021/12/30 02:24:17;;;;;;;25.40;11.70;;;-3.90;99.90;;;;;;5005621;28;20116;-81
2021/12/30 02:26:43;;;;;;;26.50;11.55;;;-3.90;99.90;;;;;;5014608;28;20475;-84
2021/12/30 02:29:09;;;;;;;27.10;12.50;;;-3.90;99.90;;;;;;5013729;28;20483;-83
2021/12/30 02:31:35;;;;;;;21.50;11.05;;;-3.90;99.90;;;;;;4996768;28;20030;-82
2021/12/30 02:34:01;;;;;;;21.05;10.30;;;-3.90;99.90;;;;;;5014221;28;20028;-82
2021/12/30 02:36:33;;;;;;;21.35;10.65;;;-3.90;99.90;;;;;;4997063;28;20022;-82
2021/12/30 02:39:03;;;;;;;22.20;9.80;;;-3.90;99.90;;;;;;4996046;28;20120;-83
2021/12/30 02:41:33;;;;;;;19.85;9.77;;;-3.90;99.90;;;;;;4996273;28;20080;-83
2021/12/30 02:43:59;;;;;;;24.08;12.25;;;-3.90;99.90;;;;;;5014006;28;20026;-83
2021/12/30 02:46:28;;;;;;;29.38;14.25;;;-3.80;99.90;;;;;;4996546;28;20030;-84
2021/12/30 02:48:58;;;;;;;24.88;11.70;;;-3.90;99.90;;;;;;4996064;28;20030;-85
2021/12/30 02:51:25;;;;;;;32.83;14.13;;;-3.90;99.90;;;;;;4996464;28;20029;-83
2021/12/30 02:53:51;;;;;;;30.20;13.88;;;-3.90;99.90;;;;;;4996168;28;20037;-84
2021/12/30 02:56:18;;;;;;;24.35;11.75;;;-3.80;99.90;;;;;;5013987;28;20368;-84
2021/12/30 02:58:44;;;;;;;28.17;12.43;;;-3.90;99.90;;;;;;5014173;28;20038;-83
2021/12/30 03:01:15;;;;;;;26.20;12.05;;;-3.80;99.90;;;;;;4996732;28;20524;-83
2021/12/30 03:03:42;;;;;;;26.55;12.68;;;-3.90;99.90;;;;;;4995928;28;20026;-84
2021/12/30 03:06:11;;;;;;;27.92;13.05;;;-3.90;99.90;;;;;;5013409;28;20041;-83
2021/12/30 03:08:37;;;;;;;25.85;13.20;;;-3.90;99.90;;;;;;4995767;28;20052;-83
2021/12/30 03:11:03;;;;;;;24.33;12.27;;;-3.90;99.90;;;;;;4995813;28;20068;-82
2021/12/30 03:13:33;;;;;;;29.75;13.93;;;-3.90;99.90;;;;;;5012443;28;20868;-83
2021/12/30 03:16:17;;;;;;;25.80;12.57;;;-3.90;99.90;;;;;;4996296;28;20037;-83
2021/12/30 03:18:46;;;;;;;23.52;11.07;;;-3.90;99.90;;;;;;4997708;28;20125;-84
2021/12/30 03:21:14;;;;;;;24.15;11.48;;;-3.90;99.90;;;;;;5017217;28;20058;-83
2021/12/30 03:23:40;;;;;;;26.95;12.68;;;-3.90;99.90;;;;;;5017209;28;20030;-83
2021/12/30 03:26:07;;;;;;;27.77;13.38;;;-3.90;99.90;;;;;;5003057;28;20037;-83
2021/12/30 03:28:34;;;;;;;28.45;13.40;;;-3.90;99.90;;;;;;5018925;28;20465;-83
2021/12/30 03:31:00;;;;;;;28.58;13.68;;;-3.90;99.90;;;;;;4999425;28;20419;-84
2021/12/30 03:33:31;;;;;;;33.95;14.27;;;-3.90;99.90;;;;;;5015624;28;20034;-83
2021/12/30 03:36:01;;;;;;;35.67;15.60;;;-4.00;99.90;;;;;;5000279;28;20037;-84
2021/12/30 03:38:29;;;;;;;48.33;21.08;;;-3.90;99.90;;;;;;5017000;28;20076;-82
2021/12/30 03:40:55;;;;;;;59.97;25.88;;;-3.90;99.90;;;;;;4999197;28;20089;-83
2021/12/30 03:43:21;;;;;;;58.25;25.88;;;-3.90;99.90;;;;;;5016644;28;20169;-83
2021/12/30 03:45:46;;;;;;;53.90;23.23;;;-3.90;99.90;;;;;;4999204;28;20046;-84
2021/12/30 03:48:12;;;;;;;46.40;21.15;;;-3.90;99.90;;;;;;5015691;28;20034;-83
2021/12/30 03:50:44;;;;;;;49.25;22.35;;;-3.90;99.90;;;;;;5015138;28;20391;-83
2021/12/30 03:53:14;;;;;;;43.92;22.25;;;-3.90;99.90;;;;;;5016805;28;20026;-83
2021/12/30 03:55:40;;;;;;;57.10;26.52;;;-3.90;99.90;;;;;;4999002;28;20036;-84
2021/12/30 03:58:06;;;;;;;65.10;29.40;;;-3.90;99.90;;;;;;5016704;28;20038;-84
2021/12/30 04:00:34;;;;;;;45.75;20.75;;;-4.00;99.90;;;;;;5016720;28;20471;-84
2021/12/30 04:03:00;;;;;;;36.17;17.05;;;-3.90;99.90;;;;;;4998845;28;20026;-83
2021/12/30 04:05:26;;;;;;;37.17;16.70;;;-3.90;99.90;;;;;;5016691;28;20061;-83
2021/12/30 04:07:52;;;;;;;30.35;14.38;;;-3.90;99.90;;;;;;4999135;28;20077;-84
2021/12/30 04:10:24;;;;;;;32.00;14.60;;;-3.90;99.90;;;;;;5002821;28;20060;-84
2021/12/30 04:12:52;;;;;;;30.83;14.00;;;-3.90;99.90;;;;;;5056108;28;20021;-84
2021/12/30 04:15:18;;;;;;;28.17;13.60;;;-4.00;99.90;;;;;;5055456;28;20029;-84
2021/12/30 04:17:44;;;;;;;30.13;13.40;;;-4.00;99.90;;;;;;5055841;28;20028;-83
2021/12/30 04:20:13;;;;;;;29.50;13.60;;;-3.90;99.90;;;;;;5055820;28;20032;-84
2021/12/30 04:22:41;;;;;;;26.08;12.57;;;-3.90;99.90;;;;;;5038110;28;20370;-83
2021/12/30 04:25:09;;;;;;;24.30;11.57;;;-3.90;99.90;;;;;;5056042;28;20467;-84
2021/12/30 04:27:35;;;;;;;21.63;10.38;;;-3.90;99.90;;;;;;5037738;28;20029;-83
2021/12/30 04:30:02;;;;;;;26.70;13.23;;;-3.90;99.90;;;;;;5037085;28;20029;-83
2021/12/30 04:32:28;;;;;;;25.23;12.57;;;-3.90;99.90;;;;;;4998905;28;20026;-83
2021/12/30 04:34:54;;;;;;;28.92;12.23;;;-3.90;99.90;;;;;;5015950;28;20523;-83
2021/12/30 04:37:19;;;;;;;23.83;11.38;;;-3.90;99.90;;;;;;5016471;28;20033;-84
2021/12/30 04:39:45;;;;;;;23.90;12.02;;;-3.90;99.90;;;;;;5016402;28;20041;-83
2021/12/30 04:42:11;;;;;;;27.67;12.18;;;-3.90;99.90;;;;;;5048543;28;20032;-84
2021/12/30 04:44:36;;;;;;;29.25;13.32;;;-3.90;99.90;;;;;;5037479;28;20078;-84
2021/12/30 04:47:02;;;;;;;27.50;12.93;;;-3.90;99.90;;;;;;5023947;28;20116;-84
2021/12/30 04:49:28;;;;;;;24.55;12.43;;;-3.90;99.90;;;;;;5017487;28;20029;-84
2021/12/30 04:51:54;;;;;;;26.65;12.43;;;-3.90;99.90;;;;;;5017560;28;20079;-83
2021/12/30 04:54:19;;;;;;;22.30;11.10;;;-3.90;99.90;;;;;;5035813;28;20032;-84
2021/12/30 04:56:46;;;;;;;24.60;11.77;;;-3.90;99.90;;;;;;5049388;28;20471;-83
2021/12/30 04:59:12;;;;;;;23.30;11.27;;;-3.80;99.90;;;;;;5037060;28;20103;-84
2021/12/30 05:01:38;;;;;;;25.75;11.57;;;-3.90;99.90;;;;;;5041798;28;20025;-83
2021/12/30 05:04:05;;;;;;;24.65;12.48;;;-3.90;99.90;;;;;;5017894;28;20113;-84
2021/12/30 05:06:32;;;;;;;21.45;10.60;;;-3.80;99.90;;;;;;5029374;28;20044;-84
2021/12/30 05:08:59;;;;;;;47.53;27.15;;;-3.80;99.90;;;;;;5037011;28;20029;-81
2021/12/30 05:11:24;;;;;;;45.83;21.85;;;-3.80;99.90;;;;;;5055095;28;20115;-85
2021/12/30 05:13:50;;;;;;;44.08;20.75;;;-3.70;99.90;;;;;;5054474;28;20072;-84
2021/12/30 05:16:18;;;;;;;53.95;23.17;;;-3.70;99.90;;;;;;5054216;28;20105;-84
2021/12/30 05:18:45;;;;;;;55.65;23.80;;;-3.70;99.90;;;;;;5054585;28;20040;-85
2021/12/30 05:21:11;;;;;;;50.47;22.85;;;-3.70;99.90;;;;;;5054911;28;20152;-85
2021/12/30 05:23:38;;;;;;;48.60;21.15;;;-3.70;99.90;;;;;;5054406;28;20025;-84
2021/12/30 05:26:04;;;;;;;46.63;21.05;;;-3.70;99.90;;;;;;5054838;28;20032;-85
2021/12/30 05:28:30;;;;;;;42.63;19.20;;;-3.70;99.90;;;;;;5054101;28;20037;-85
2021/12/30 05:30:56;;;;;;;39.10;18.73;;;-3.70;99.90;;;;;;5054351;28;20029;-85
2021/12/30 05:33:22;;;;;;;37.33;17.80;;;-3.70;99.90;;;;;;5036130;28;20029;-84
2021/12/30 05:35:47;;;;;;;34.03;16.05;;;-3.70;99.90;;;;;;5036846;28;20025;-85
2021/12/30 05:38:16;;;;;;;29.77;14.50;;;-3.80;99.90;;;;;;5053747;28;20037;-83
2021/12/30 05:40:42;;;;;;;31.58;15.43;;;-3.70;99.90;;;;;;5054284;28;20467;-84
2021/12/30 05:43:08;;;;;;;31.05;14.05;;;-3.70;99.90;;;;;;5029268;28;20117;-84
2021/12/30 05:45:34;;;;;;;27.08;13.73;;;-3.70;99.90;;;;;;5025548;28;20036;-84
2021/12/30 05:47:59;;;;;;;31.80;14.70;;;-3.70;99.90;;;;;;5033012;28;20115;-84
2021/12/30 05:50:28;;;;;;;29.73;13.35;;;-3.70;99.90;;;;;;5019669;28;20029;-83
2021/12/30 05:52:54;;;;;;;25.30;12.55;;;-3.80;99.90;;;;;;5034183;28;20076;-84
2021/12/30 05:55:21;;;;;;;25.95;12.15;;;-3.80;99.90;;;;;;5016448;28;20033;-84
2021/12/30 05:57:52;;;;;;;21.35;11.35;;;-3.80;99.90;;;;;;5017451;28;20060;-90
2021/12/30 06:00:21;;;;;;;;;;;-3.80;99.90;;;;;;5034552;28;20021;-81
2021/12/30 06:02:48;;;;;;;38.00;16.60;;;-3.90;99.90;;;;;;5015909;28;19959;-79
2021/12/30 06:05:14;;;;;;;42.00;20.13;;;-3.90;99.90;;;;;;5016111;28;20091;-80
2021/12/30 06:07:40;;;;;;;52.30;21.80;;;-3.90;99.90;;;;;;5033799;28;20041;-81
2021/12/30 06:10:06;;;;;;;48.85;21.98;;;-3.80;99.90;;;;;;5016880;28;20037;-84
2021/12/30 06:12:32;;;;;;;40.53;18.42;;;-3.80;99.90;;;;;;5034248;28;20045;-81
2021/12/30 06:15:33;;;;;;;34.55;16.60;;;-3.80;99.90;;;;;;5034375;28;20022;-82
2021/12/30 06:17:59;;;;;;;39.90;18.42;;;-3.80;99.90;;;;;;5010858;28;20120;-82
2021/12/30 06:20:29;;;;;;;45.92;20.40;;;-3.80;99.90;;;;;;5033860;28;20075;-87
2021/12/30 06:22:55;;;;;;;38.28;17.23;;;-3.80;99.90;;;;;;5017529;28;20124;-82
2021/12/30 06:25:21;;;;;;;38.72;17.13;;;-3.70;99.90;;;;;;5037125;28;20498;-81
2021/12/30 06:27:47;;;;;;;37.20;16.73;;;-3.70;99.90;;;;;;5023001;28;20033;-85
2021/12/30 06:30:13;;;;;;;35.15;17.13;;;-3.70;99.90;;;;;;5009333;28;20034;-87
2021/12/30 06:32:39;;;;;;;32.60;15.02;;;-3.60;99.90;;;;;;4996482;28;20033;-83
2021/12/30 06:35:08;;;;;;;37.00;16.60;;;-3.60;99.90;;;;;;4996289;28;20053;-83
2021/12/30 06:37:34;;;;;;;31.88;14.38;;;-3.60;99.90;;;;;;4999697;28;20026;-84
2021/12/30 06:40:06;;;;;;;30.35;15.20;;;-3.60;99.90;;;;;;4998498;28;20049;-85
2021/12/30 06:42:32;;;;;;;33.95;15.82;;;-3.60;99.90;;;;;;5014945;28;20065;-85
2021/12/30 06:45:01;;;;;;;28.98;14.48;;;-3.50;99.90;;;;;;4996535;28;20061;-83
2021/12/30 06:47:27;;;;;;;30.35;13.65;;;-3.50;99.90;;;;;;4997263;28;20036;-82
2021/12/30 06:49:59;;;;;;;27.38;13.35;;;-3.40;99.90;;;;;;5014742;28;20113;-85
2021/12/30 06:52:25;;;;;;;28.33;12.80;;;-3.40;99.90;;;;;;5004130;28;20032;-83
2021/12/30 06:54:53;;;;;;;22.52;12.05;;;-3.40;99.90;;;;;;5022625;28;20108;-85
2021/12/30 06:57:19;;;;;;;24.30;11.70;;;-3.30;99.90;;;;;;5016609;28;20030;-81
2021/12/30 06:59:46;;;;;;;26.30;11.88;;;-3.30;99.90;;;;;;5029485;28;20365;-81
2021/12/30 07:02:13;;;;;;;29.60;14.90;;;-3.30;99.90;;;;;;5000031;28;20030;-82
2021/12/30 07:04:38;;;;;;;29.25;14.20;;;-3.30;99.90;;;;;;4999536;28;20479;-82
2021/12/30 07:07:04;;;;;;;32.75;15.82;;;-3.20;99.90;;;;;;4999634;28;20040;-82
2021/12/30 07:09:30;;;;;;;32.70;15.55;;;-3.20;99.90;;;;;;4999347;28;20033;-83
2021/12/30 07:11:56;;;;;;;33.90;15.32;;;-3.20;99.90;;;;;;5016411;28;20109;-81
2021/12/30 07:14:22;;;;;;;29.00;13.73;;;-3.20;99.90;;;;;;4998901;28;20032;-81
2021/12/30 07:16:49;;;;;;;26.98;12.93;;;-3.10;99.90;;;;;;5017587;28;20384;-80
2021/12/30 07:19:17;;;;;;;29.63;14.35;;;-3.10;99.90;;;;;;5001102;28;20100;-82
2021/12/30 07:21:43;;;;;;;28.38;13.80;;;-3.10;99.90;;;;;;5017546;28;20496;-81
2021/12/30 07:24:09;;;;;;;30.42;14.32;;;-3.10;99.90;;;;;;5000938;28;20030;-80
2021/12/30 07:26:35;;;;;;;31.17;14.65;;;-3.10;99.90;;;;;;5000164;28;20049;-80
2021/12/30 07:29:02;;;;;;;29.70;14.05;;;-3.10;99.90;;;;;;5000266;28;20061;-80
2021/12/30 07:31:29;;;;;;;29.40;13.98;;;-3.00;99.90;;;;;;5018362;28;20033;-83
2021/12/30 07:33:55;;;;;;;28.75;14.48;;;-3.00;99.90;;;;;;4999120;28;20071;-81
2021/12/30 07:36:21;;;;;;;29.65;14.25;;;-2.90;99.90;;;;;;4998871;28;20117;-81
2021/12/30 07:38:48;;;;;;;31.75;15.60;;;-2.80;99.90;;;;;;5016802;28;20034;-82
2021/12/30 07:41:14;;;;;;;27.88;14.45;;;-2.80;99.90;;;;;;4999106;28;20034;-82
2021/12/30 07:43:40;;;;;;;30.30;14.57;;;-2.80;99.90;;;;;;5016335;28;20037;-80
2021/12/30 07:46:07;;;;;;;32.50;14.32;;;-2.70;99.90;;;;;;4998965;28;20033;-81
2021/12/30 07:48:33;;;;;;;32.70;16.67;;;-2.60;99.90;;;;;;5016629;28;20386;-81
2021/12/30 07:50:59;;;;;;;30.60;15.32;;;-2.60;99.90;;;;;;5017102;28;20109;-82
2021/12/30 07:53:25;;;;;;;36.80;16.17;;;-2.50;99.90;;;;;;5017003;28;20064;-81
2021/12/30 07:55:50;;;;;;;34.15;16.85;;;-2.40;99.90;;;;;;5032160;28;20049;-81
2021/12/30 07:58:16;;;;;;;32.17;15.80;;;-2.40;99.90;;;;;;4999095;28;20081;-81
2021/12/30 08:00:42;;;;;;;29.63;13.98;;;-2.30;99.90;;;;;;5017062;28;20041;-81
2021/12/30 08:03:08;;;;;;;32.50;15.07;;;-2.30;99.90;;;;;;5016650;28;20084;-82
2021/12/30 08:05:57;;;;;;;32.55;15.88;;;-2.30;99.90;;;;;;5015937;28;20030;-81
2021/12/30 08:08:23;;;;;;;24.88;13.05;;;-2.20;98.70;;;;;;4998853;28;20528;-84
2021/12/30 08:10:49;;;;;;;25.80;13.35;;;-2.10;99.90;;;;;;4999079;28;20117;-81
2021/12/30 08:27:20;;;;;;;28.35;13.63;;;-1.60;95.20;;;;;;5016243;28;20041;-80
2021/12/30 08:29:55;;;;;;;22.10;12.18;;;-1.60;97.50;;;;;;5016767;28;20069;-83
2021/12/30 08:35:59;;;;;;;23.58;11.55;;;-1.50;97.20;;;;;;5016739;28;20024;-82
2021/12/30 08:38:25;;;;;;;20.98;11.25;;;-1.40;96.00;;;;;;4998212;28;20419;-80
2021/12/30 08:40:51;;;;;;;24.30;12.98;;;-1.40;96.90;;;;;;4998028;28;20110;-82
2021/12/30 08:43:17;;;;;;;27.58;13.77;;;-1.40;96.20;;;;;;4997802;28;20092;-81
2021/12/30 08:45:45;;;;;;;23.23;13.00;;;-1.40;96.20;;;;;;5015493;28;20026;-81
2021/12/30 08:48:24;;;;;;;24.38;12.30;;;-1.40;96.00;;;;;;4998776;28;20384;-81
2021/12/30 08:54:16;;;;;;;23.52;12.55;;;-1.40;95.30;;;;;;5015437;28;20036;-82
2021/12/30 08:56:42;;;;;;;23.83;12.35;;;-1.40;95.50;;;;;;4997781;28;20060;-82
2021/12/30 08:59:07;;;;;;;24.00;12.20;;;-1.40;95.80;;;;;;4997801;28;20049;-82
2021/12/30 09:01:33;;;;;;;26.33;13.52;;;-1.30;95.70;;;;;;5014788;28;20037;-81
2021/12/30 09:03:58;;;;;;;23.27;12.00;;;-1.30;95.40;;;;;;4997786;28;20062;-82
2021/12/30 09:06:24;;;;;;;21.02;11.55;;;-1.40;95.30;;;;;;5014862;28;20030;-82
2021/12/30 09:08:50;;;;;;;23.77;12.15;;;-1.40;95.10;;;;;;5015737;28;20033;-83
2021/12/30 09:11:26;;;;;;;30.30;14.70;;;-1.40;94.90;;;;;;4998121;28;20029;-82
2021/12/30 09:17:14;;;;;;;24.88;13.05;;;-1.40;92.90;;;;;;5014660;28;20550;-80
2021/12/30 09:19:40;;;;;;;26.17;12.30;;;-1.40;95.00;;;;;;4997104;28;20033;-81
2021/12/30 09:22:05;;;;;;;23.92;12.10;;;-1.40;95.40;;;;;;4997167;28;20038;-83
2021/12/30 09:38:53;;;;;;;26.35;12.77;;;-1.30;92.30;;;;;;5014645;28;20455;-81
2021/12/30 09:41:34;;;;;;;24.35;11.48;;;-1.30;94.30;;;;;;5014382;28;20065;-83
2021/12/30 09:44:00;;;;;;;24.67;12.00;;;-1.30;93.50;;;;;;4996780;28;20038;-82
2021/12/30 09:46:27;;;;;;;23.95;11.93;;;-1.30;94.10;;;;;;4996794;28;20030;-81
2021/12/30 09:48:53;;;;;;;23.52;12.43;;;-1.30;94.00;;;;;;4997125;28;20025;-81
2021/12/30 09:51:20;;;;;;;61.92;36.67;;;-1.20;94.00;;;;;;5014716;28;20033;-77
2021/12/30 09:53:50;;;;;;;53.60;26.85;;;-1.20;94.20;;;;;;5014010;28;20044;-79
2021/12/30 09:56:17;;;;;;;42.40;21.30;;;-1.20;94.00;;;;;;4996589;28;20033;-81
2021/12/30 09:58:43;;;;;;;39.83;18.73;;;-1.10;93.50;;;;;;5013858;28;20083;-82
2021/12/30 10:01:09;;;;;;;36.53;17.88;;;-1.10;93.20;;;;;;4996936;28;20033;-86
2021/12/30 10:03:35;;;;;;;33.00;15.82;;;-1.20;92.80;;;;;;5014501;28;20018;-85
2021/12/30 10:06:09;;;;;;;26.50;14.05;;;-1.10;93.30;;;;;;4996551;28;20380;-85
2021/12/30 10:08:40;;;;;;;24.50;12.82;;;-1.10;92.90;;;;;;5014551;28;20029;-85
2021/12/30 10:11:12;;;;;;;26.65;13.18;;;-1.10;93.30;;;;;;5014602;28;20046;-84
2021/12/30 10:13:40;;;;;;;20.35;10.80;;;-1.00;93.10;;;;;;5013946;28;20054;-85
2021/12/30 10:16:15;;;;;;;21.10;11.35;;;-1.00;93.10;;;;;;4996430;28;20030;-83
2021/12/30 10:19:00;;;;;;;20.80;11.50;;;-1.00;92.60;;;;;;5000244;28;20033;-84
2021/12/30 10:21:45;;;;;;;20.48;11.07;;;-1.00;91.70;;;;;;5014417;28;20077;-87
2021/12/30 10:24:12;;;;;;;23.50;12.48;;;-1.00;92.90;;;;;;5009648;28;20359;-83
2021/12/30 10:26:58;;;;;;;26.17;12.35;;;-1.00;92.50;;;;;;4997098;28;20030;-83
2021/12/30 10:29:27;;;;;;;25.95;13.70;;;-1.00;91.80;;;;;;5000181;28;20380;-78
2021/12/30 10:31:54;;;;;;;29.40;14.65;;;-1.00;92.20;;;;;;5038277;28;20037;-87
2021/12/30 10:34:20;;;;;;;24.50;13.93;;;-1.00;92.00;;;;;;5023371;28;20104;-88
2021/12/30 10:36:48;;;;;;;24.13;13.32;;;-1.00;92.10;;;;;;5008906;28;20032;-86
2021/12/30 10:39:18;;;;;;;22.90;11.57;;;-0.90;92.10;;;;;;5050833;28;20463;-86
2021/12/30 10:41:44;;;;;;;26.98;13.15;;;-0.90;92.20;;;;;;5021473;28;20056;-86
2021/12/30 10:44:10;;;;;;;24.33;12.80;;;-0.90;92.20;;;;;;5020409;28;20124;-82
2021/12/30 10:46:37;;;;;;;22.75;11.77;;;-0.90;92.20;;;;;;5021044;28;20021;-81
2021/12/30 10:49:05;;;;;;;28.15;13.13;;;-0.90;92.10;;;;;;5049374;28;20025;-84
2021/12/30 10:51:40;;;;;;;19.50;11.38;;;-0.90;91.80;;;;;;5024295;28;20018;-85
2021/12/30 10:54:28;;;;;;;24.13;13.00;;;-0.90;91.80;;;;;;5038092;28;20554;-88
2021/12/30 10:56:55;;;;;;;25.25;13.20;;;-1.00;91.10;;;;;;5042850;28;20033;-90
2021/12/30 10:59:26;;;;;;;21.85;11.65;;;-1.00;91.60;;;;;;5018017;28;20021;-86
2021/12/30 11:01:58;;;;;;;23.20;11.43;;;-1.00;92.00;;;;;;5041107;28;20029;-89
2021/12/30 11:04:53;;;;;;;26.35;13.27;;;-1.10;92.10;;;;;;5041211;28;20036;-83
2021/12/30 11:07:22;;;;;;;24.20;11.90;;;-1.00;90.90;;;;;;5018561;28;20041;-87
2021/12/30 11:09:53;;;;;;;23.70;11.98;;;-1.00;91.90;;;;;;5044143;28;20026;-80
2021/12/30 11:12:37;;;;;;;26.73;12.68;;;-1.00;91.90;;;;;;5036824;28;20056;-82
2021/12/30 11:15:26;;;;;;;27.63;13.38;;;-1.00;91.60;;;;;;5050897;28;20113;-82
2021/12/30 11:18:10;;;;;;;25.58;12.27;;;-1.00;91.20;;;;;;5001405;28;20450;-82
2021/12/30 11:20:44;;;;;;;24.75;12.13;;;-1.00;91.70;;;;;;5019147;28;20057;-83
2021/12/30 11:23:11;;;;;;;25.05;12.82;;;-1.00;91.50;;;;;;5018261;28;20032;-82
2021/12/30 11:25:37;;;;;;;27.65;13.60;;;-1.00;91.60;;;;;;5053683;28;20025;-83
2021/12/30 11:28:03;;;;;;;25.33;13.00;;;-1.00;91.50;;;;;;5024308;28;20494;-84
2021/12/30 11:30:28;;;;;;;28.35;14.75;;;-1.00;91.30;;;;;;5050934;28;20521;-80
2021/12/30 11:32:54;;;;;;;26.23;13.32;;;-1.00;91.10;;;;;;5038243;28;20078;-85
2021/12/30 11:35:23;;;;;;;26.75;13.77;;;-1.00;91.30;;;;;;5056526;28;20052;-84
2021/12/30 11:37:49;;;;;;;23.75;12.43;;;-1.00;91.40;;;;;;5037592;28;20025;-80
2021/12/30 11:40:18;;;;;;;25.10;12.82;;;-1.10;91.50;;;;;;5055704;28;20151;-81
2021/12/30 11:42:46;;;;;;;22.45;12.38;;;-1.10;91.70;;;;;;5038535;28;20036;-82
2021/12/30 11:45:26;;;;;;;27.00;13.65;;;-1.10;91.80;;;;;;5037872;28;20025;-81
2021/12/30 11:47:53;;;;;;;28.25;14.45;;;-1.10;91.40;;;;;;5056229;28;20029;-80
2021/12/30 11:50:27;;;;;;;29.98;14.05;;;-1.10;91.60;;;;;;5055598;28;20061;-80
2021/12/30 11:52:53;;;;;;;27.63;14.23;;;-1.10;90.30;;;;;;5037600;28;20036;-80
2021/12/30 11:55:42;;;;;;;26.58;12.98;;;-1.10;91.60;;;;;;5037915;28;20021;-80
2021/12/30 11:58:37;;;;;;;33.63;15.10;;;-1.10;91.40;;;;;;5056089;28;20021;-80
2021/12/30 12:01:12;;;;;;;29.80;14.02;;;-1.10;90.60;;;;;;5038061;28;20102;-79
2021/12/30 12:03:43;;;;;;;28.05;13.88;;;-1.10;91.50;;;;;;5056621;28;20075;-87
2021/12/30 12:06:42;;;;;;;26.17;13.10;;;-1.10;91.30;;;;;;5056406;28;20065;-81
2021/12/30 12:09:08;;;;;;;28.77;13.90;;;-1.20;91.00;;;;;;5034294;28;20147;-84
2021/12/30 12:11:55;;;;;;;26.73;13.25;;;-1.20;91.40;;;;;;5026169;28;20034;-83
2021/12/30 12:14:26;;;;;;;30.15;14.25;;;-1.20;91.40;;;;;;5009199;28;20030;-85
2021/12/30 12:17:00;;;;;;;30.38;13.63;;;-1.20;91.40;;;;;;5016777;28;20040;-84
2021/12/30 12:19:51;;;;;;;32.90;15.35;;;-1.30;91.50;;;;;;5035044;28;20112;-85
2021/12/30 12:22:19;;;;;;;33.87;15.03;;;-1.30;90.80;;;;;;5017349;28;20032;-85
2021/12/30 12:24:50;;;;;;;34.75;16.58;;;-1.40;91.50;;;;;;5017647;28;20464;-84
2021/12/30 12:27:18;;;;;;;30.85;14.27;;;-1.40;91.70;;;;;;5035253;28;20025;-84
2021/12/30 12:29:44;;;;;;;28.85;13.93;;;-1.40;91.70;;;;;;5035659;28;20044;-83
2021/12/30 12:32:16;;;;;;;29.45;14.23;;;-1.40;91.70;;;;;;5032772;28;20379;-84
2021/12/30 12:34:50;;;;;;;40.33;17.88;;;-1.40;91.70;;;;;;5013835;28;20053;-86
2021/12/30 12:37:37;;;;;;;34.10;15.88;;;-1.50;91.20;;;;;;5031967;28;20430;-84
2021/12/30 12:40:23;;;;;;;35.47;15.23;;;-1.50;91.40;;;;;;5032354;28;20029;-87
2021/12/30 12:42:49;;;;;;;27.90;12.90;;;-1.50;91.80;;;;;;5032363;28;20022;-85
2021/12/30 12:45:17;;;;;;;39.03;17.58;;;-1.50;92.20;;;;;;5033310;28;20048;-85
2021/12/30 12:47:44;;;;;;;41.83;18.08;;;-1.40;91.80;;;;;;5017000;28;20027;-84
2021/12/30 12:50:10;;;;;;;39.60;17.58;;;-1.40;91.80;;;;;;5016993;28;20029;-85
2021/12/30 12:52:43;;;;;;;40.97;16.75;;;-1.40;91.60;;;;;;5034757;28;20040;-84
2021/12/30 12:55:21;;;;;;;37.45;17.65;;;-1.40;91.40;;;;;;5017197;28;20028;-84
2021/12/30 12:57:49;;;;;;;30.23;14.10;;;-1.40;91.10;;;;;;5017390;28;20480;-83
2021/12/30 13:00:26;;;;;;;27.15;13.50;;;-1.40;91.70;;;;;;5035623;28;20061;-83
2021/12/30 13:02:55;;;;;;;29.23;14.65;;;-1.40;91.80;;;;;;5017372;28;20041;-83
2021/12/30 13:05:24;;;;;;;35.05;15.45;;;-1.40;91.70;;;;;;5017119;28;20034;-84
2021/12/30 13:07:51;;;;;;;30.98;14.88;;;-1.40;91.50;;;;;;5034958;28;20025;-84
2021/12/30 13:10:20;;;;;;;26.48;13.18;;;-1.40;91.50;;;;;;5035651;28;20033;-84
2021/12/30 13:12:47;;;;;;;33.83;14.75;;;-1.40;91.30;;;;;;5038012;28;20074;-83
2021/12/30 13:15:15;;;;;;;28.27;14.00;;;-1.40;91.30;;;;;;5019798;28;20041;-84
2021/12/30 13:17:43;;;;;;;24.95;12.02;;;-1.50;91.40;;;;;;5035918;28;20022;-83